GUCY/CKY METAR and TAF weather

Enter ICAO airport designator
Station Type Date Time Source
GUCY METAR 2022/11/14 12:00 UTC NOAA

GUCY 141200Z 14006KT 9999 FEW015 31/23 Q1014 NOSIG


Station Type Date Time Source
GUCY Decoded METAR 2022/11/14 12:00 UTC NOAA

Conakry / Gbessia, Guinea (GUCY) 09-34N 013-37W 26M
Nov 14, 2022 - 07:00 AM EST / 2022.11.14 1200 UTC
Wind: from the SE (140 degrees) at 7 MPH (6 KT):0
Visibility: greater than 7 mile(s):0
Sky conditions: mostly clear
Temperature: 87 F (31 C)
Heat index: 93.9 F (34.4 C):1
Dew Point: 73 F (23 C)
Relative Humidity: 62%
Pressure (altimeter): 29.94 in. Hg (1014 hPa)
ob: GUCY 141200Z 14006KT 9999 FEW015 31/23 Q1014 NOSIG
cycle: 12

Station Type Date Time Source
GUCY TAF 2022/11/14 12:12 UTC NOAA

TAF TAF GUCY 141100Z 1412/1518 25006KT 9999 SCT015 SCT110
TEMPO 1418/1422 TS FEW023CB
BECMG 1504/1509 VRB02KT

Example: see airport list